»·PEaware :: N346CP L52-L88

N346CP :: L52-L88

FLIGHT INFORMATION

Flight Status: Arrived
Operator: Privately registered:
United States
More flights under this callsign
Pilot: Ron M. (31128)
Aircraft: CESSNA 172 SKYHAWK
(C172)
More flights by this aircraft type
Origin: L52 Oceano Co
United States
Destination: L88 New Cuyama
United States
More flights between these airports :: More routes between these airports
Route:
File this flight plan on PilotEdge
Remarks:
Altitude:
(Current/Filed)
7,500ft
Speed:
(Current/Filed)
120kts
Departed: 13-Oct-20 05:16 PM
Arrived: 13-Oct-20 06:09 PM
Distance/Time
Traveled:
47nm/0:53
Distance/Time
To Go:
Arrived

Flight Plot

Page will automatically refresh every two minutes.


Map Options




Map Legend


Flown Route
Filed Route
Departure Airport
Arrival Airport
Navaid (VOR, NDB)
Fix

Horizontal Profiles

Position Reports

Time Latitude Longitude Heading Altitude Ground
Speed
13-Oct-20 17:10 35.100861 -120.621087 122 17ft 10kts
13-Oct-20 17:11 35.099655 -120.619769 129 17ft 6kts
13-Oct-20 17:12 35.099534 -120.619546 38 17ft 0kts
13-Oct-20 17:13 35.099534 -120.619546 37 17ft 0kts
13-Oct-20 17:14 35.099534 -120.619546 38 17ft 0kts
13-Oct-20 17:15 35.099534 -120.619546 38 17ft 0kts
13-Oct-20 17:15 35.103423 -120.625717 307 177ft 66kts
13-Oct-20 17:17 35.119792 -120.641800 18 1190ft 73kts
13-Oct-20 17:17 35.125434 -120.621950 95 1895ft 82kts
13-Oct-20 17:19 35.112881 -120.592171 118 2823ft 86kts
13-Oct-20 17:19 35.101065 -120.572457 126 3476ft 89kts
13-Oct-20 17:20 35.089944 -120.546430 112 4329ft 87kts
13-Oct-20 17:21 35.081128 -120.518758 100 5119ft 86kts
13-Oct-20 17:22 35.074473 -120.489817 100 5855ft 89kts
13-Oct-20 17:23 35.069798 -120.459822 95 6448ft 98kts
13-Oct-20 17:24 35.066260 -120.426653 91 6508ft 98kts
13-Oct-20 17:25 35.062754 -120.391868 95 6650ft 106kts
13-Oct-20 17:26 35.060538 -120.355248 95 6776ft 108kts
13-Oct-20 17:27 35.058959 -120.316934 90 6863ft 111kts
13-Oct-20 17:28 35.052264 -120.284319 107 7362ft 108kts
13-Oct-20 17:29 35.038816 -120.251072 120 7480ft 111kts
13-Oct-20 17:30 35.027631 -120.217335 99 7607ft 108kts
13-Oct-20 17:31 35.022512 -120.181367 98 7728ft 108kts
13-Oct-20 17:32 35.016926 -120.145322 98 7829ft 109kts
13-Oct-20 17:33 35.010100 -120.109279 101 7943ft 109kts
13-Oct-20 17:34 35.003225 -120.073513 98 8019ft 106kts
13-Oct-20 17:35 34.990448 -120.040078 121 7697ft 109kts
13-Oct-20 17:36 34.980404 -120.005075 104 7312ft 108kts
13-Oct-20 17:37 34.972754 -119.969579 96 6995ft 107kts
13-Oct-20 17:38 34.971815 -119.933672 87 6617ft 107kts
13-Oct-20 17:39 34.972003 -119.897454 90 6330ft 109kts
13-Oct-20 17:40 34.973866 -119.861196 94 6170ft 111kts
13-Oct-20 17:41 34.968046 -119.824313 106 5767ft 111kts
13-Oct-20 17:42 34.953655 -119.790390 120 4731ft 111kts
13-Oct-20 17:43 34.935333 -119.759511 77 3128ft 117kts
13-Oct-20 17:44 34.932467 -119.724948 98 2512ft 96kts
13-Oct-20 17:45 34.920090 -119.698557 120 2510ft 91kts
13-Oct-20 17:46 34.903064 -119.676523 104 2903ft 82kts
13-Oct-20 17:47 34.909391 -119.652274 22 3085ft 95kts
13-Oct-20 17:48 34.922839 -119.671182 296 2899ft 88kts
13-Oct-20 17:49 34.928423 -119.698611 268 2610ft 82kts
13-Oct-20 17:50 34.940739 -119.719018 359 2656ft 84kts
13-Oct-20 17:51 34.954874 -119.699648 102 2808ft 102kts
13-Oct-20 17:52 34.948668 -119.667559 102 2874ft 107kts
13-Oct-20 17:53 34.935253 -119.649237 195 2504ft 91kts
13-Oct-20 17:54 34.932488 -119.671229 269 2334ft 79kts
13-Oct-20 17:55 34.934761 -119.693645 332 2655ft 52kts
13-Oct-20 17:56 34.939439 -119.676327 98 2828ft 101kts
13-Oct-20 17:57 34.930631 -119.671870 264 2626ft 99kts
13-Oct-20 17:58 34.941512 -119.693423 352 2665ft 95kts
13-Oct-20 17:59 34.948598 -119.668225 92 2539ft 84kts
13-Oct-20 18:00 34.945617 -119.678762 282 2294ft 71kts
13-Oct-20 18:01 34.947950 -119.695539 325 2318ft 82kts
13-Oct-20 18:02 34.957040 -119.688231 134 2417ft 97kts
13-Oct-20 18:03 34.940988 -119.661359 111 2319ft 94kts
13-Oct-20 18:04 34.936997 -119.672018 295 2369ft 66kts
13-Oct-20 18:05 34.943339 -119.690116 317 2398ft 69kts
13-Oct-20 18:06 34.951875 -119.680239 103 2642ft 94kts
13-Oct-20 18:07 34.933795 -119.668022 257 2449ft 82kts
13-Oct-20 18:08 34.939788 -119.685218 297 2179ft 14kts
13-Oct-20 18:09 34.941354 -119.689004 297 2162ft 10kts
13-Oct-20 18:10 34.942299 -119.690922 347 2156ft 0kts
13-Oct-20 18:13 34.942299 -119.690922 347 2156ft 0kts
13-Oct-20 18:14 34.942299 -119.690922 347 2156ft 0kts
13-Oct-20 18:15 34.942299 -119.690922 347 2156ft 0kts
13-Oct-20 18:16 34.942299 -119.690922 347 2156ft 0kts

Navigation Log

Ident Type
Flight plan parsing failed, navigation log unavailable